Darstellungsparameter: Aktuell verwendete Einstellungen:
Skalierung der Graphiken ... ?
xyx+y,   Skalierungsfaktor:      Skalierung: Modus: x, Faktor: 1
Darstellungszeitraum ... ?
Vom - - bis: - -   Zeitraum: 10.11.2019 - 11.11.2019
Min/Max/Avg-Anzeige ... ?
Zeige MMA aktuell
Zeige MMA Monat
Zeige MMA alles
Zeige --A aktuell
Zeige --A Monat
Zeige --A alles
Keine MMA-Anzeige
MMA:
Minimum Maximum Average (ber die Originaldaten)
MMA-Basis: 14.04.2020 - 16.05.2020
Quicknavigation für Darstellung... ?
Tage:      1T, 2T, 3T, 5T -1T -2T -3T -5T +1T +2T +3T +5T
Wochen: 1W, 2W, 3W -1W -2W -3W +1W +2W +3W
Monate: 1M, 3M, 6M -1M -3M -6M +1M +3M +6M
Jahre:    1J, 3J, 5J, 10J -1J -3J -5J -10J +1J +3J +5J +10J
Nutze für die Darstellung ... ?
Originaldaten oder Mittelwerte auf ...
Stundenbasis Tagesbasis Wochenbasis
Monatsbasis Jahresbasis      Datenbasis: Original-Daten
Darstellen als:
Statistik (Auto) Statistik J:M      Darstellung:
Zur Graphik,    zurück zur Übersicht aller Sensoren.
 
Tabellarische Datenbersicht: ?
 
Sensor: Nr:Datum:Temp:Abs-Feuchte:Windchill:Wind:
Aussen-T/F 1 10-11-2019 00:00:00 1.6 C 5.19 g/m*3 1.6 C 0 km/h
2 10-11-2019 00:05:00 1.6 C 5.19 g/m*3 1.6 C 0 km/h
3 10-11-2019 00:10:00 1.4 C 5.07 g/m*3 1.4 C 0 km/h
4 10-11-2019 00:15:00 1.4 C 5.07 g/m*3 1.4 C 0 km/h
5 10-11-2019 00:20:00 1.3 C 5.03 g/m*3 1.3 C 0 km/h
6 10-11-2019 00:25:00 1.2 C 5.05 g/m*3 1.2 C 0 km/h
7 10-11-2019 00:30:00 1.2 C 5.05 g/m*3 1.2 C 0 km/h
8 10-11-2019 00:35:00 1.1 C 4.96 g/m*3 1.1 C 0 km/h
9 10-11-2019 00:40:00 1.1 C 5.02 g/m*3 1.1 C 0 km/h
10 10-11-2019 00:45:00 1.1 C 5.02 g/m*3 1.1 C 0 km/h
11 10-11-2019 00:50:00 1.1 C 5.02 g/m*3 1.1 C 0 km/h
12 10-11-2019 00:55:00 1 C 4.98 g/m*3 1 C 0 km/h
13 10-11-2019 01:00:00 1 C 4.98 g/m*3 1 C 0 km/h
14 10-11-2019 01:05:00 0.9 C 4.95 g/m*3 0.9 C 0 km/h
15 10-11-2019 01:10:00 1 C 4.98 g/m*3 1 C 0 km/h
16 10-11-2019 01:15:00 1.1 C 5.02 g/m*3 1.1 C 0 km/h
17 10-11-2019 01:20:00 1.2 C 5.05 g/m*3 1.2 C 0 km/h
18 10-11-2019 01:25:00 1.3 C 5.09 g/m*3 1.3 C 0 km/h
19 10-11-2019 01:30:00 1.4 C 5.12 g/m*3 1.4 C 0 km/h
20 10-11-2019 01:35:00 1.5 C 5.21 g/m*3 1.5 C 0 km/h
21 10-11-2019 01:40:00 1.6 C 5.25 g/m*3 1.6 C 0 km/h
22 10-11-2019 01:45:00 1.6 C 5.25 g/m*3 1.6 C 0 km/h
23 10-11-2019 01:50:00 1.6 C 5.25 g/m*3 1.6 C 0 km/h
24 10-11-2019 01:55:00 1.6 C 5.25 g/m*3 1.6 C 0 km/h
25 10-11-2019 02:00:00 1.6 C 5.25 g/m*3 1.6 C 0 km/h
Sensor: Nr:Datum:Temp:Abs-Feuchte:Windchill:Wind:
Aussen-T/F 26 10-11-2019 02:05:00 1.7 C 5.23 g/m*3 1.7 C 0 km/h
27 10-11-2019 02:10:00 1.7 C 5.23 g/m*3 1.7 C 0 km/h
28 10-11-2019 02:15:00 1.7 C 5.23 g/m*3 1.7 C 0 km/h
29 10-11-2019 02:20:00 1.7 C 5.23 g/m*3 1.7 C 0 km/h
30 10-11-2019 02:25:00 1.7 C 5.23 g/m*3 1.7 C 0 km/h
31 10-11-2019 02:30:00 1.6 C 5.25 g/m*3 1.6 C 0 km/h
32 10-11-2019 02:35:00 1.6 C 5.25 g/m*3 1.6 C 0 km/h
33 10-11-2019 02:40:00 1.6 C 5.25 g/m*3 1.6 C 0 km/h
34 10-11-2019 02:45:00 1.6 C 5.25 g/m*3 1.6 C 0 km/h
35 10-11-2019 02:50:00 1.7 C 5.28 g/m*3 1.7 C 0 km/h
36 10-11-2019 02:55:00 1.7 C 5.28 g/m*3 1.7 C 0 km/h
37 10-11-2019 03:00:00 1.7 C 5.28 g/m*3 1.7 C 0 km/h
38 10-11-2019 03:05:00 1.7 C 5.28 g/m*3 1.7 C 0 km/h
39 10-11-2019 03:10:00 1.7 C 5.28 g/m*3 1.7 C 0 km/h
40 10-11-2019 03:15:00 1.7 C 5.28 g/m*3 1.7 C 0 km/h
41 10-11-2019 03:20:00 1.6 C 5.25 g/m*3 1.6 C 0 km/h
42 10-11-2019 03:25:00 1.6 C 5.25 g/m*3 1.6 C 0 km/h
43 10-11-2019 03:30:00 1.6 C 5.25 g/m*3 1.6 C 0 km/h
44 10-11-2019 03:35:00 1.6 C 5.25 g/m*3 1.6 C 0 km/h
45 10-11-2019 03:40:00 1.6 C 5.25 g/m*3 1.6 C 0 km/h
46 10-11-2019 03:45:00 1.5 C 5.21 g/m*3 1.5 C 1.6 km/h
47 10-11-2019 03:50:00 1.4 C 5.17 g/m*3 1.4 C 1.6 km/h
48 10-11-2019 03:55:00 1.4 C 5.17 g/m*3 1.4 C 3.2 km/h
49 10-11-2019 04:00:00 1.3 C 5.14 g/m*3 1.3 C 1.6 km/h
50 10-11-2019 04:05:00 1.3 C 5.14 g/m*3 1.3 C 0 km/h
Sensor: Nr:Datum:Temp:Abs-Feuchte:Windchill:Wind:
Aussen-T/F 51 10-11-2019 04:10:00 1.3 C 5.14 g/m*3 1.3 C 3.2 km/h
52 10-11-2019 04:15:00 1.3 C 5.14 g/m*3 1.3 C 1.6 km/h
53 10-11-2019 04:20:00 1.2 C 5.1 g/m*3 1.2 C 3.2 km/h
54 10-11-2019 04:25:00 1.2 C 5.1 g/m*3 1.2 C 0 km/h
55 10-11-2019 04:30:00 1.3 C 5.14 g/m*3 1.3 C 0 km/h
56 10-11-2019 04:35:00 1.3 C 5.14 g/m*3 1.3 C 0 km/h
57 10-11-2019 04:40:00 1.3 C 5.14 g/m*3 1.3 C 0 km/h
58 10-11-2019 04:45:00 1.3 C 5.14 g/m*3 1.3 C 0 km/h
59 10-11-2019 04:50:00 1.3 C 5.14 g/m*3 1.3 C 0 km/h
60 10-11-2019 04:55:00 1.3 C 5.14 g/m*3 1.3 C 0 km/h
61 10-11-2019 05:00:00 1.3 C 5.14 g/m*3 1.3 C 0 km/h
62 10-11-2019 05:05:00 1.3 C 5.14 g/m*3 1.3 C 0 km/h
63 10-11-2019 05:10:00 1.3 C 5.14 g/m*3 1.3 C 0 km/h
64 10-11-2019 05:15:00 1.3 C 5.14 g/m*3 1.3 C 0 km/h
65 10-11-2019 05:20:00 1.3 C 5.14 g/m*3 1.3 C 0 km/h
66 10-11-2019 05:25:00 1.4 C 5.17 g/m*3 1.4 C 0 km/h
67 10-11-2019 05:30:00 1.4 C 5.17 g/m*3 1.4 C 0 km/h
68 10-11-2019 05:35:00 1.4 C 5.17 g/m*3 1.4 C 0 km/h
69 10-11-2019 05:40:00 1.4 C 5.17 g/m*3 1.4 C 0 km/h
70 10-11-2019 05:45:00 1.4 C 5.17 g/m*3 1.4 C 0 km/h
71 10-11-2019 05:50:00 1.5 C 5.21 g/m*3 1.5 C 0 km/h
72 10-11-2019 05:55:00 1.6 C 5.25 g/m*3 1.6 C 0 km/h
73 10-11-2019 06:00:00 1.7 C 5.28 g/m*3 1.7 C 0 km/h
74 10-11-2019 06:05:00 1.7 C 5.28 g/m*3 1.7 C 0 km/h
75 10-11-2019 06:10:00 1.7 C 5.28 g/m*3 1.7 C 0 km/h
Sensor: Nr:Datum:Temp:Abs-Feuchte:Windchill:Wind:
Aussen-T/F 76 10-11-2019 06:15:00 1.7 C 5.28 g/m*3 1.7 C 0 km/h
77 10-11-2019 06:20:00 1.8 C 5.32 g/m*3 1.8 C 3.2 km/h
78 10-11-2019 06:25:00 1.8 C 5.32 g/m*3 1.8 C 3.2 km/h
79 10-11-2019 06:30:00 1.7 C 5.28 g/m*3 1.7 C 4.8 km/h
80 10-11-2019 06:35:00 1.7 C 5.28 g/m*3 1.7 C 4.8 km/h
81 10-11-2019 06:40:00 1.7 C 5.28 g/m*3 1.7 C 4.8 km/h
82 10-11-2019 06:45:00 1.7 C 5.28 g/m*3 -0.22 C 6.4 km/h
83 10-11-2019 06:50:00 1.7 C 5.28 g/m*3 1.7 C 4.8 km/h
84 10-11-2019 06:55:00 1.6 C 5.25 g/m*3 1.6 C 3.2 km/h
85 10-11-2019 07:00:00 1.6 C 5.25 g/m*3 1.6 C 3.2 km/h
86 10-11-2019 07:05:00 1.6 C 5.25 g/m*3 1.6 C 3.2 km/h
87 10-11-2019 07:10:00 1.7 C 5.28 g/m*3 1.7 C 3.2 km/h
88 10-11-2019 07:15:00 1.6 C 5.25 g/m*3 1.6 C 3.2 km/h
89 10-11-2019 07:20:00 1.6 C 5.25 g/m*3 1.6 C 3.2 km/h
90 10-11-2019 07:25:00 1.6 C 5.25 g/m*3 1.6 C 3.2 km/h
91 10-11-2019 07:30:00 1.6 C 5.25 g/m*3 1.6 C 0 km/h
92 10-11-2019 07:35:00 1.6 C 5.25 g/m*3 1.6 C 1.6 km/h
93 10-11-2019 07:40:00 1.6 C 5.25 g/m*3 1.6 C 1.6 km/h
94 10-11-2019 07:45:00 1.6 C 5.25 g/m*3 1.6 C 0 km/h
95 10-11-2019 07:50:00 1.6 C 5.25 g/m*3 1.6 C 0 km/h
96 10-11-2019 07:55:00 1.7 C 5.28 g/m*3 1.7 C 0 km/h
97 10-11-2019 08:00:00 1.7 C 5.28 g/m*3 1.7 C 0 km/h
98 10-11-2019 08:05:00 1.7 C 5.28 g/m*3 1.7 C 0 km/h
99 10-11-2019 08:10:00 1.7 C 5.28 g/m*3 1.7 C 0 km/h
100 10-11-2019 08:15:00 1.8 C 5.32 g/m*3 1.8 C 0 km/h
Sensor: Nr:Datum:Temp:Abs-Feuchte:Windchill:Wind:
Aussen-T/F 101 10-11-2019 08:20:00 1.8 C 5.37 g/m*3 1.8 C 1.6 km/h
102 10-11-2019 08:25:00 1.8 C 5.32 g/m*3 1.8 C 1.6 km/h
103 10-11-2019 08:30:00 1.8 C 5.37 g/m*3 1.8 C 1.6 km/h
104 10-11-2019 08:35:00 1.9 C 5.41 g/m*3 1.9 C 0 km/h
105 10-11-2019 08:40:00 1.9 C 5.41 g/m*3 1.9 C 0 km/h
106 10-11-2019 08:45:00 1.9 C 5.41 g/m*3 1.9 C 0 km/h
107 10-11-2019 08:50:00 1.9 C 5.35 g/m*3 1.9 C 1.6 km/h
108 10-11-2019 08:55:00 1.9 C 5.35 g/m*3 1.9 C 0 km/h
109 10-11-2019 09:00:00 2 C 5.39 g/m*3 2 C 0 km/h
110 10-11-2019 09:05:00 2.1 C 5.43 g/m*3 2.1 C 0 km/h
111 10-11-2019 09:10:00 2.1 C 5.48 g/m*3 2.1 C 0 km/h
112 10-11-2019 09:15:00 2.2 C 5.52 g/m*3 2.2 C 0 km/h
113 10-11-2019 09:20:00 2.2 C 5.52 g/m*3 2.2 C 1.6 km/h
114 10-11-2019 09:25:00 2.2 C 5.52 g/m*3 2.2 C 1.6 km/h
115 10-11-2019 09:30:00 2.3 C 5.56 g/m*3 2.3 C 1.6 km/h
116 10-11-2019 09:35:00 2.3 C 5.56 g/m*3 2.3 C 0 km/h
117 10-11-2019 09:40:00 2.4 C 5.6 g/m*3 2.4 C 0 km/h
118 10-11-2019 09:45:00 2.4 C 5.6 g/m*3 2.4 C 0 km/h
119 10-11-2019 09:50:00 2.4 C 5.54 g/m*3 2.4 C 1.6 km/h
120 10-11-2019 09:55:00 2.4 C 5.54 g/m*3 2.4 C 1.6 km/h
121 10-11-2019 10:00:00 2.5 C 5.63 g/m*3 2.5 C 3.2 km/h
122 10-11-2019 10:05:00 2.6 C 5.67 g/m*3 2.6 C 3.2 km/h
123 10-11-2019 10:10:00 2.6 C 5.67 g/m*3 2.6 C 1.6 km/h
124 10-11-2019 10:15:00 2.6 C 5.67 g/m*3 2.6 C 1.6 km/h
125 10-11-2019 10:20:00 2.6 C 5.67 g/m*3 2.6 C 0 km/h
Sensor: Nr:Datum:Temp:Abs-Feuchte:Windchill:Wind:
Aussen-T/F 126 10-11-2019 10:25:00 2.6 C 5.67 g/m*3 2.6 C 0 km/h
127 10-11-2019 10:30:00 2.7 C 5.71 g/m*3 2.7 C 0 km/h
128 10-11-2019 10:35:00 2.7 C 5.71 g/m*3 2.7 C 0 km/h
129 10-11-2019 10:40:00 2.7 C 5.71 g/m*3 2.7 C 0 km/h
130 10-11-2019 10:45:00 2.7 C 5.71 g/m*3 2.7 C 0 km/h
131 10-11-2019 10:50:00 2.8 C 5.75 g/m*3 2.8 C 1.6 km/h
132 10-11-2019 10:55:00 2.9 C 5.79 g/m*3 2.9 C 0 km/h
133 10-11-2019 11:00:00 2.9 C 5.79 g/m*3 2.9 C 0 km/h
134 10-11-2019 11:05:00 3 C 5.83 g/m*3 3 C 1.6 km/h
135 10-11-2019 11:10:00 3.1 C 5.87 g/m*3 3.1 C 0 km/h
136 10-11-2019 11:15:00 3.1 C 5.87 g/m*3 3.1 C 1.6 km/h
137 10-11-2019 11:20:00 3.1 C 5.87 g/m*3 3.1 C 0 km/h
138 10-11-2019 11:25:00 3.2 C 5.91 g/m*3 3.2 C 3.2 km/h
139 10-11-2019 11:30:00 3.2 C 5.91 g/m*3 3.2 C 4.8 km/h
140 10-11-2019 11:35:00 3.3 C 5.95 g/m*3 3.3 C 0 km/h
141 10-11-2019 11:40:00 3.4 C 5.99 g/m*3 3.4 C 3.2 km/h
142 10-11-2019 11:45:00 3.4 C 5.99 g/m*3 3.4 C 3.2 km/h
143 10-11-2019 11:50:00 3.4 C 5.99 g/m*3 3.4 C 4.8 km/h
144 10-11-2019 11:55:00 3.3 C 5.95 g/m*3 3.3 C 4.8 km/h
145 10-11-2019 12:00:00 3.3 C 5.88 g/m*3 3.3 C 3.2 km/h
146 10-11-2019 12:05:00 3.3 C 5.88 g/m*3 3.3 C 4.8 km/h
147 10-11-2019 12:10:00 3.3 C 5.88 g/m*3 3.3 C 3.2 km/h
148 10-11-2019 12:15:00 3.3 C 5.88 g/m*3 3.3 C 4.8 km/h
149 10-11-2019 12:20:00 3.3 C 5.88 g/m*3 3.3 C 4.8 km/h
150 10-11-2019 12:25:00 3.3 C 5.88 g/m*3 3.3 C 4.8 km/h
Sensor: Nr:Datum:Temp:Abs-Feuchte:Windchill:Wind:
Aussen-T/F 151 10-11-2019 12:30:00 3.4 C 5.92 g/m*3 1.75 C 6.4 km/h
152 10-11-2019 12:35:00 3.4 C 5.92 g/m*3 3.4 C 4.8 km/h
153 10-11-2019 12:40:00 3.5 C 5.96 g/m*3 3.5 C 4.8 km/h
154 10-11-2019 12:45:00 3.5 C 5.96 g/m*3 1.86 C 6.4 km/h
155 10-11-2019 12:50:00 3.6 C 5.94 g/m*3 1.46 C 8.1 km/h
156 10-11-2019 12:55:00 3.6 C 5.94 g/m*3 3.6 C 4.8 km/h
157 10-11-2019 13:00:00 3.6 C 5.94 g/m*3 3.6 C 4.8 km/h
158 10-11-2019 13:05:00 3.6 C 5.94 g/m*3 3.6 C 4.8 km/h
159 10-11-2019 13:10:00 3.7 C 5.98 g/m*3 2.09 C 6.4 km/h
160 10-11-2019 13:15:00 3.7 C 5.92 g/m*3 3.7 C 4.8 km/h
161 10-11-2019 13:20:00 3.8 C 5.96 g/m*3 3.8 C 4.8 km/h
162 10-11-2019 13:25:00 3.8 C 5.96 g/m*3 3.8 C 4.8 km/h
163 10-11-2019 13:30:00 3.9 C 6 g/m*3 3.9 C 3.2 km/h
164 10-11-2019 13:35:00 4 C 6.04 g/m*3 4 C 0 km/h
165 10-11-2019 13:40:00 4 C 6.04 g/m*3 4 C 4.8 km/h
166 10-11-2019 13:45:00 4.1 C 6.08 g/m*3 4.1 C 4.8 km/h
167 10-11-2019 13:50:00 4.1 C 6.02 g/m*3 4.1 C 3.2 km/h
168 10-11-2019 13:55:00 4.1 C 6.02 g/m*3 4.1 C 4.8 km/h
169 10-11-2019 14:00:00 4.2 C 6.06 g/m*3 4.2 C 4.8 km/h
170 10-11-2019 14:05:00 4.2 C 6.06 g/m*3 4.2 C 3.2 km/h
171 10-11-2019 14:10:00 4.2 C 6.06 g/m*3 4.2 C 4.8 km/h
172 10-11-2019 14:15:00 4.2 C 6.06 g/m*3 4.2 C 4.8 km/h
173 10-11-2019 14:20:00 4.2 C 5.99 g/m*3 4.2 C 4.8 km/h
174 10-11-2019 14:25:00 4.3 C 6.1 g/m*3 4.3 C 4.8 km/h
175 10-11-2019 14:30:00 4.3 C 6.03 g/m*3 4.3 C 3.2 km/h
Sensor: Nr:Datum:Temp:Abs-Feuchte:Windchill:Wind:
Aussen-T/F 176 10-11-2019 14:35:00 4.3 C 6.03 g/m*3 4.3 C 3.2 km/h
177 10-11-2019 14:40:00 4.4 C 6.07 g/m*3 4.4 C 3.2 km/h
178 10-11-2019 14:45:00 4.4 C 6.07 g/m*3 4.4 C 0 km/h
179 10-11-2019 14:50:00 4.4 C 6.07 g/m*3 4.4 C 1.6 km/h
180 10-11-2019 14:55:00 4.4 C 6.07 g/m*3 4.4 C 0 km/h
181 10-11-2019 15:00:00 4.5 C 6.11 g/m*3 4.5 C 3.2 km/h
182 10-11-2019 15:05:00 4.6 C 6.15 g/m*3 4.6 C 3.2 km/h
183 10-11-2019 15:10:00 4.6 C 6.15 g/m*3 4.6 C 0 km/h
184 10-11-2019 15:15:00 4.7 C 6.19 g/m*3 4.7 C 3.2 km/h
185 10-11-2019 15:20:00 4.7 C 6.19 g/m*3 4.7 C 3.2 km/h
186 10-11-2019 15:25:00 4.6 C 6.15 g/m*3 4.6 C 1.6 km/h
187 10-11-2019 15:30:00 4.7 C 6.19 g/m*3 4.7 C 0 km/h
188 10-11-2019 15:35:00 4.7 C 6.19 g/m*3 4.7 C 0 km/h
189 10-11-2019 15:40:00 4.7 C 6.19 g/m*3 4.7 C 0 km/h
190 10-11-2019 15:45:00 4.7 C 6.19 g/m*3 4.7 C 3.2 km/h
191 10-11-2019 15:50:00 4.7 C 6.13 g/m*3 4.7 C 4.8 km/h
192 10-11-2019 15:55:00 4.7 C 6.13 g/m*3 4.7 C 0 km/h
193 10-11-2019 16:00:00 4.7 C 6.13 g/m*3 4.7 C 0 km/h
194 10-11-2019 16:05:00 4.7 C 6.13 g/m*3 4.7 C 1.6 km/h
195 10-11-2019 16:10:00 4.6 C 6.09 g/m*3 4.6 C 3.2 km/h
196 10-11-2019 16:15:00 4.6 C 6.09 g/m*3 4.6 C 3.2 km/h
197 10-11-2019 16:20:00 4.6 C 6.09 g/m*3 4.6 C 1.6 km/h
198 10-11-2019 16:25:00 4.6 C 6.09 g/m*3 4.6 C 0 km/h
199 10-11-2019 16:30:00 4.6 C 6.09 g/m*3 4.6 C 0 km/h
200 10-11-2019 16:35:00 4.6 C 6.09 g/m*3 4.6 C 0 km/h
Sensor: Nr:Datum:Temp:Abs-Feuchte:Windchill:Wind:
Aussen-T/F 201 10-11-2019 16:40:00 4.6 C 6.09 g/m*3 4.6 C 1.6 km/h
202 10-11-2019 16:45:00 4.5 C 6.05 g/m*3 4.5 C 3.2 km/h
203 10-11-2019 16:50:00 4.5 C 6.05 g/m*3 4.5 C 1.6 km/h
204 10-11-2019 16:55:00 4.4 C 6.01 g/m*3 4.4 C 1.6 km/h
205 10-11-2019 17:00:00 4.4 C 6.07 g/m*3 4.4 C 1.6 km/h
206 10-11-2019 17:05:00 4.4 C 6.07 g/m*3 4.4 C 0 km/h
207 10-11-2019 17:10:00 4.4 C 6.07 g/m*3 4.4 C 1.6 km/h
208 10-11-2019 17:15:00 4.4 C 6.07 g/m*3 4.4 C 0 km/h
209 10-11-2019 17:20:00 4.4 C 6.07 g/m*3 4.4 C 0 km/h
210 10-11-2019 17:25:00 4.3 C 6.03 g/m*3 4.3 C 3.2 km/h
211 10-11-2019 17:30:00 4.3 C 6.03 g/m*3 4.3 C 1.6 km/h
212 10-11-2019 17:35:00 4.4 C 6.07 g/m*3 4.4 C 0 km/h
213 10-11-2019 17:40:00 4.4 C 6.07 g/m*3 4.4 C 3.2 km/h
214 10-11-2019 17:45:00 4.3 C 6.03 g/m*3 4.3 C 1.6 km/h
215 10-11-2019 17:50:00 4.3 C 6.03 g/m*3 4.3 C 0 km/h
216 10-11-2019 17:55:00 4.3 C 6.03 g/m*3 4.3 C 1.6 km/h
217 10-11-2019 18:00:00 4.3 C 6.03 g/m*3 4.3 C 0 km/h
218 10-11-2019 18:05:00 4.3 C 6.03 g/m*3 4.3 C 0 km/h
219 10-11-2019 18:10:00 4.3 C 6.03 g/m*3 4.3 C 0 km/h
220 10-11-2019 18:15:00 4.3 C 6.1 g/m*3 4.3 C 0 km/h
221 10-11-2019 18:20:00 4.3 C 6.1 g/m*3 4.3 C 0 km/h
222 10-11-2019 18:25:00 4.3 C 6.1 g/m*3 4.3 C 0 km/h
223 10-11-2019 18:30:00 4.3 C 6.1 g/m*3 4.3 C 4.8 km/h
224 10-11-2019 18:35:00 4.3 C 6.1 g/m*3 4.3 C 4.8 km/h
225 10-11-2019 18:40:00 4.3 C 6.1 g/m*3 4.3 C 3.2 km/h
Sensor: Nr:Datum:Temp:Abs-Feuchte:Windchill:Wind:
Aussen-T/F 226 10-11-2019 18:45:00 4.2 C 6.06 g/m*3 4.2 C 1.6 km/h
227 10-11-2019 18:50:00 4.2 C 6.06 g/m*3 4.2 C 0 km/h
228 10-11-2019 18:55:00 4.2 C 6.06 g/m*3 4.2 C 0 km/h
229 10-11-2019 19:00:00 4.2 C 6.06 g/m*3 4.2 C 4.8 km/h
230 10-11-2019 19:05:00 4.2 C 6.06 g/m*3 4.2 C 1.6 km/h
231 10-11-2019 19:10:00 4.2 C 6.06 g/m*3 4.2 C 3.2 km/h
232 10-11-2019 19:15:00 4.2 C 6.06 g/m*3 4.2 C 4.8 km/h
233 10-11-2019 19:20:00 4.1 C 6.02 g/m*3 4.1 C 0 km/h
234 10-11-2019 19:25:00 4.1 C 6.02 g/m*3 4.1 C 0 km/h
235 10-11-2019 19:30:00 4.1 C 6.02 g/m*3 4.1 C 0 km/h
236 10-11-2019 19:35:00 4.1 C 6.02 g/m*3 4.1 C 0 km/h
237 10-11-2019 19:40:00 4.1 C 6.02 g/m*3 4.1 C 0 km/h
238 10-11-2019 19:45:00 4.1 C 6.02 g/m*3 4.1 C 0 km/h
239 10-11-2019 19:50:00 4.2 C 6.06 g/m*3 4.2 C 1.6 km/h
240 10-11-2019 19:55:00 4.2 C 6.12 g/m*3 4.2 C 3.2 km/h
241 10-11-2019 20:00:00 4.2 C 6.12 g/m*3 4.2 C 0 km/h
242 10-11-2019 20:05:00 4.2 C 6.12 g/m*3 4.2 C 0 km/h
243 10-11-2019 20:10:00 4.2 C 6.12 g/m*3 4.2 C 0 km/h
244 10-11-2019 20:15:00 4.2 C 6.12 g/m*3 4.2 C 1.6 km/h
245 10-11-2019 20:20:00 4.2 C 6.12 g/m*3 4.2 C 0 km/h
246 10-11-2019 20:25:00 4.2 C 6.12 g/m*3 4.2 C 0 km/h
247 10-11-2019 20:30:00 4.3 C 6.16 g/m*3 4.3 C 0 km/h
248 10-11-2019 20:35:00 4.3 C 6.16 g/m*3 4.3 C 1.6 km/h
249 10-11-2019 20:40:00 4.3 C 6.16 g/m*3 4.3 C 0 km/h
250 10-11-2019 20:45:00 4.3 C 6.16 g/m*3 4.3 C 0 km/h
Sensor: Nr:Datum:Temp:Abs-Feuchte:Windchill:Wind:
Aussen-T/F 251 10-11-2019 20:50:00 4.3 C 6.16 g/m*3 4.3 C 0 km/h
252 10-11-2019 20:55:00 4.3 C 6.16 g/m*3 4.3 C 0 km/h
253 10-11-2019 21:00:00 4.3 C 6.16 g/m*3 4.3 C 0 km/h
254 10-11-2019 21:05:00 4.3 C 6.16 g/m*3 4.3 C 0 km/h
255 10-11-2019 21:10:00 4.3 C 6.16 g/m*3 4.3 C 0 km/h
256 10-11-2019 21:15:00 4.3 C 6.16 g/m*3 4.3 C 0 km/h
257 10-11-2019 21:20:00 4.3 C 6.16 g/m*3 4.3 C 1.6 km/h
258 10-11-2019 21:25:00 4.3 C 6.16 g/m*3 4.3 C 1.6 km/h
259 10-11-2019 21:30:00 4.3 C 6.16 g/m*3 4.3 C 0 km/h
260 10-11-2019 21:35:00 4.3 C 6.16 g/m*3 4.3 C 0 km/h
261 10-11-2019 21:40:00 4.3 C 6.16 g/m*3 4.3 C 0 km/h
262 10-11-2019 21:45:00 4.3 C 6.16 g/m*3 4.3 C 0 km/h
263 10-11-2019 21:50:00 4.3 C 6.16 g/m*3 4.3 C 0 km/h
264 10-11-2019 21:55:00 4.3 C 6.16 g/m*3 4.3 C 0 km/h
265 10-11-2019 22:00:00 4.3 C 6.16 g/m*3 4.3 C 0 km/h
266 10-11-2019 22:05:00 4.3 C 6.16 g/m*3 4.3 C 0 km/h
267 10-11-2019 22:10:00 4.2 C 6.12 g/m*3 4.2 C 0 km/h
268 10-11-2019 22:15:00 4.2 C 6.12 g/m*3 4.2 C 0 km/h
269 10-11-2019 22:20:00 4.2 C 6.12 g/m*3 4.2 C 0 km/h
270 10-11-2019 22:25:00 4.2 C 6.12 g/m*3 4.2 C 0 km/h
271 10-11-2019 22:30:00 4.2 C 6.12 g/m*3 4.2 C 0 km/h
272 10-11-2019 22:35:00 4.3 C 6.16 g/m*3 4.3 C 0 km/h
273 10-11-2019 22:40:00 4.3 C 6.16 g/m*3 4.3 C 0 km/h
274 10-11-2019 22:45:00 4.3 C 6.16 g/m*3 4.3 C 0 km/h
275 10-11-2019 22:50:00 4.4 C 6.2 g/m*3 4.4 C 0 km/h
Sensor: Nr:Datum:Temp:Abs-Feuchte:Windchill:Wind:
Aussen-T/F 276 10-11-2019 22:55:00 4.4 C 6.2 g/m*3 4.4 C 0 km/h
277 10-11-2019 23:00:00 4.4 C 6.2 g/m*3 4.4 C 0 km/h
278 10-11-2019 23:05:00 4.4 C 6.2 g/m*3 4.4 C 0 km/h
279 10-11-2019 23:10:00 4.4 C 6.2 g/m*3 4.4 C 1.6 km/h
280 10-11-2019 23:15:00 4.4 C 6.14 g/m*3 4.4 C 0 km/h
281 10-11-2019 23:20:00 4.4 C 6.14 g/m*3 4.4 C 0 km/h
282 10-11-2019 23:25:00 4.3 C 6.1 g/m*3 4.3 C 0 km/h
283 10-11-2019 23:30:00 4.3 C 6.1 g/m*3 4.3 C 0 km/h
284 10-11-2019 23:35:00 4.3 C 6.1 g/m*3 4.3 C 0 km/h
285 10-11-2019 23:40:00 4.4 C 6.14 g/m*3 4.4 C 0 km/h
286 10-11-2019 23:45:00 4.4 C 6.14 g/m*3 4.4 C 0 km/h
287 10-11-2019 23:50:00 4.4 C 6.14 g/m*3 4.4 C 0 km/h
288 10-11-2019 23:55:00 4.3 C 6.1 g/m*3 4.3 C 4.8 km/h
289 11-11-2019 00:00:00 4.3 C 6.1 g/m*3 4.3 C 1.6 km/h
290 11-11-2019 00:05:00 4.3 C 6.1 g/m*3 4.3 C 4.8 km/h
291 11-11-2019 00:10:00 4.3 C 6.03 g/m*3 4.3 C 3.2 km/h
292 11-11-2019 00:15:00 4.3 C 6.03 g/m*3 4.3 C 0 km/h
293 11-11-2019 00:20:00 4.3 C 6.03 g/m*3 4.3 C 0 km/h
294 11-11-2019 00:25:00 4.3 C 6.03 g/m*3 4.3 C 0 km/h
295 11-11-2019 00:30:00 4.3 C 6.03 g/m*3 4.3 C 0 km/h
296 11-11-2019 00:35:00 4.3 C 6.03 g/m*3 4.3 C 0 km/h
297 11-11-2019 00:40:00 4.2 C 5.99 g/m*3 4.2 C 0 km/h
298 11-11-2019 00:45:00 4.2 C 5.99 g/m*3 4.2 C 0 km/h
299 11-11-2019 00:50:00 4.2 C 5.99 g/m*3 4.2 C 1.6 km/h
300 11-11-2019 00:55:00 4.1 C 5.95 g/m*3 4.1 C 0 km/h
Sensor: Nr:Datum:Temp:Abs-Feuchte:Windchill:Wind:
Aussen-T/F 301 11-11-2019 01:00:00 4.1 C 5.95 g/m*3 4.1 C 3.2 km/h
302 11-11-2019 01:05:00 4.1 C 5.95 g/m*3 4.1 C 0 km/h
303 11-11-2019 01:10:00 4 C 5.91 g/m*3 2.44 C 6.4 km/h
304 11-11-2019 01:15:00 3.9 C 5.87 g/m*3 3.9 C 1.6 km/h
305 11-11-2019 01:20:00 3.9 C 5.87 g/m*3 3.9 C 1.6 km/h
306 11-11-2019 01:25:00 3.8 C 5.83 g/m*3 3.8 C 1.6 km/h
307 11-11-2019 01:30:00 3.8 C 5.83 g/m*3 3.8 C 1.6 km/h
308 11-11-2019 01:35:00 3.8 C 5.83 g/m*3 3.8 C 1.6 km/h
309 11-11-2019 01:40:00 3.8 C 5.83 g/m*3 3.8 C 0 km/h
310 11-11-2019 01:45:00 3.7 C 5.8 g/m*3 3.7 C 4.8 km/h
311 11-11-2019 01:50:00 3.7 C 5.73 g/m*3 3.7 C 3.2 km/h
312 11-11-2019 01:55:00 3.6 C 5.69 g/m*3 3.6 C 4.8 km/h
313 11-11-2019 02:00:00 3.6 C 5.76 g/m*3 3.6 C 0 km/h
314 11-11-2019 02:05:00 3.6 C 5.76 g/m*3 3.6 C 1.6 km/h
315 11-11-2019 02:10:00 3.6 C 5.76 g/m*3 3.6 C 0 km/h
316 11-11-2019 02:15:00 3.6 C 5.76 g/m*3 3.6 C 0 km/h
317 11-11-2019 02:20:00 3.6 C 5.76 g/m*3 3.6 C 0 km/h
318 11-11-2019 02:25:00 3.6 C 5.76 g/m*3 3.6 C 0 km/h
319 11-11-2019 02:30:00 3.6 C 5.76 g/m*3 3.6 C 0 km/h
320 11-11-2019 02:35:00 3.6 C 5.76 g/m*3 3.6 C 0 km/h
321 11-11-2019 02:40:00 3.6 C 5.76 g/m*3 3.6 C 0 km/h
322 11-11-2019 02:45:00 3.6 C 5.76 g/m*3 3.6 C 3.2 km/h
323 11-11-2019 02:50:00 3.5 C 5.72 g/m*3 3.5 C 0 km/h
324 11-11-2019 02:55:00 3.5 C 5.72 g/m*3 3.5 C 0 km/h
325 11-11-2019 03:00:00 3.4 C 5.68 g/m*3 3.4 C 4.8 km/h
Sensor: Nr:Datum:Temp:Abs-Feuchte:Windchill:Wind:
Aussen-T/F 326 11-11-2019 03:05:00 3.4 C 5.68 g/m*3 3.4 C 3.2 km/h
327 11-11-2019 03:10:00 3.3 C 5.64 g/m*3 3.3 C 1.6 km/h
328 11-11-2019 03:15:00 3.3 C 5.64 g/m*3 3.3 C 0 km/h
329 11-11-2019 03:20:00 3.3 C 5.64 g/m*3 3.3 C 4.8 km/h
330 11-11-2019 03:25:00 3.3 C 5.64 g/m*3 3.3 C 0 km/h
331 11-11-2019 03:30:00 3.3 C 5.64 g/m*3 3.3 C 1.6 km/h
332 11-11-2019 03:35:00 3.3 C 5.64 g/m*3 3.3 C 3.2 km/h
333 11-11-2019 03:40:00 3.3 C 5.64 g/m*3 3.3 C 3.2 km/h
334 11-11-2019 03:45:00 3.3 C 5.64 g/m*3 3.3 C 3.2 km/h
335 11-11-2019 03:50:00 3.3 C 5.64 g/m*3 3.3 C 0 km/h
336 11-11-2019 03:55:00 3.2 C 5.6 g/m*3 3.2 C 3.2 km/h
337 11-11-2019 04:00:00 3.2 C 5.6 g/m*3 3.2 C 0 km/h
338 11-11-2019 04:05:00 3.2 C 5.6 g/m*3 3.2 C 0 km/h
339 11-11-2019 04:10:00 3.2 C 5.6 g/m*3 3.2 C 3.2 km/h
340 11-11-2019 04:15:00 3.2 C 5.6 g/m*3 3.2 C 3.2 km/h
341 11-11-2019 04:20:00 3.1 C 5.57 g/m*3 3.1 C 0 km/h
342 11-11-2019 04:25:00 3.2 C 5.6 g/m*3 3.2 C 0 km/h
343 11-11-2019 04:30:00 3.1 C 5.57 g/m*3 3.1 C 1.6 km/h
344 11-11-2019 04:35:00 3.1 C 5.57 g/m*3 3.1 C 0 km/h
345 11-11-2019 04:40:00 3.1 C 5.57 g/m*3 3.1 C 4.8 km/h
346 11-11-2019 04:45:00 3.1 C 5.57 g/m*3 3.1 C 0 km/h
347 11-11-2019 04:50:00 3.1 C 5.57 g/m*3 3.1 C 0 km/h
348 11-11-2019 04:55:00 3.1 C 5.57 g/m*3 3.1 C 0 km/h
349 11-11-2019 05:00:00 3.2 C 5.6 g/m*3 3.2 C 0 km/h
350 11-11-2019 05:05:00 3.2 C 5.6 g/m*3 3.2 C 3.2 km/h
Sensor: Nr:Datum:Temp:Abs-Feuchte:Windchill:Wind:
Aussen-T/F 351 11-11-2019 05:10:00 3.2 C 5.6 g/m*3 3.2 C 1.6 km/h
352 11-11-2019 05:15:00 3.2 C 5.6 g/m*3 3.2 C 0 km/h
353 11-11-2019 05:20:00 3.2 C 5.6 g/m*3 3.2 C 0 km/h
354 11-11-2019 05:25:00 3.2 C 5.6 g/m*3 3.2 C 0 km/h
355 11-11-2019 05:30:00 3.2 C 5.6 g/m*3 3.2 C 0 km/h
356 11-11-2019 05:35:00 3.2 C 5.66 g/m*3 3.2 C 0 km/h
357 11-11-2019 05:40:00 3.3 C 5.7 g/m*3 3.3 C 0 km/h
358 11-11-2019 05:45:00 3.3 C 5.7 g/m*3 3.3 C 0 km/h
359 11-11-2019 05:50:00 3.3 C 5.7 g/m*3 3.3 C 0 km/h
360 11-11-2019 05:55:00 3.3 C 5.7 g/m*3 3.3 C 0 km/h
361 11-11-2019 06:00:00 3.3 C 5.7 g/m*3 3.3 C 0 km/h
362 11-11-2019 06:05:00 3.3 C 5.64 g/m*3 3.3 C 0 km/h
363 11-11-2019 06:10:00 3.3 C 5.64 g/m*3 3.3 C 0 km/h
364 11-11-2019 06:15:00 3.3 C 5.64 g/m*3 3.3 C 0 km/h
365 11-11-2019 06:20:00 3.3 C 5.64 g/m*3 3.3 C 0 km/h
366 11-11-2019 06:25:00 3.3 C 5.64 g/m*3 3.3 C 0 km/h
367 11-11-2019 06:30:00 3.3 C 5.64 g/m*3 3.3 C 0 km/h
368 11-11-2019 06:35:00 3.3 C 5.64 g/m*3 3.3 C 0 km/h
369 11-11-2019 06:40:00 3.3 C 5.64 g/m*3 3.3 C 0 km/h
370 11-11-2019 06:45:00 3.3 C 5.7 g/m*3 3.3 C 0 km/h
371 11-11-2019 06:50:00 3.3 C 5.7 g/m*3 3.3 C 0 km/h
372 11-11-2019 06:55:00 3.3 C 5.7 g/m*3 3.3 C 0 km/h
373 11-11-2019 07:00:00 3.3 C 5.7 g/m*3 3.3 C 0 km/h
374 11-11-2019 07:05:00 3.3 C 5.7 g/m*3 3.3 C 0 km/h
375 11-11-2019 07:10:00 3.3 C 5.7 g/m*3 3.3 C 0 km/h
Sensor: Nr:Datum:Temp:Abs-Feuchte:Windchill:Wind:
Aussen-T/F 376 11-11-2019 07:15:00 3.3 C 5.7 g/m*3 3.3 C 0 km/h
377 11-11-2019 07:20:00 3.3 C 5.7 g/m*3 3.3 C 0 km/h
378 11-11-2019 07:25:00 3.4 C 5.74 g/m*3 3.4 C 0 km/h
379 11-11-2019 07:30:00 3.4 C 5.74 g/m*3 3.4 C 0 km/h
380 11-11-2019 07:35:00 3.4 C 5.74 g/m*3 3.4 C 0 km/h
381 11-11-2019 07:40:00 3.4 C 5.74 g/m*3 3.4 C 0 km/h
382 11-11-2019 07:45:00 3.5 C 5.78 g/m*3 3.5 C 0 km/h
383 11-11-2019 07:50:00 3.5 C 5.78 g/m*3 3.5 C 0 km/h
384 11-11-2019 07:55:00 3.6 C 5.82 g/m*3 1.98 C 6.4 km/h
385 11-11-2019 08:00:00 3.7 C 5.86 g/m*3 3.7 C 3.2 km/h
386 11-11-2019 08:05:00 3.7 C 5.86 g/m*3 3.7 C 4.8 km/h
387 11-11-2019 08:10:00 3.8 C 5.9 g/m*3 3.8 C 4.8 km/h
388 11-11-2019 08:15:00 3.9 C 5.94 g/m*3 1.82 C 8.1 km/h
389 11-11-2019 08:20:00 4.1 C 5.95 g/m*3 4.1 C 4.8 km/h
390 11-11-2019 08:25:00 4.2 C 5.99 g/m*3 4.2 C 4.8 km/h
391 11-11-2019 08:30:00 4.2 C 5.99 g/m*3 2.17 C 8.1 km/h
392 11-11-2019 08:35:00 4.3 C 5.97 g/m*3 2.78 C 6.4 km/h
393 11-11-2019 08:40:00 4.4 C 6.01 g/m*3 4.4 C 4.8 km/h
394 11-11-2019 08:45:00 4.5 C 6.05 g/m*3 1.79 C 11.3 km/h
395 11-11-2019 08:50:00 4.6 C 6.09 g/m*3 4.6 C 4.8 km/h
396 11-11-2019 08:55:00 4.6 C 6.02 g/m*3 2.25 C 9.7 km/h
397 11-11-2019 09:00:00 4.7 C 6.06 g/m*3 3.25 C 6.4 km/h
398 11-11-2019 09:05:00 4.8 C 6.1 g/m*3 2.15 C 11.3 km/h
399 11-11-2019 09:10:00 4.8 C 6.1 g/m*3 2.87 C 8.1 km/h
400 11-11-2019 09:15:00 4.9 C 6.14 g/m*3 2.27 C 11.3 km/h
Sensor: Nr:Datum:Temp:Abs-Feuchte:Windchill:Wind:
Aussen-T/F 401 11-11-2019 09:20:00 4.9 C 6.08 g/m*3 2.61 C 9.7 km/h
402 11-11-2019 09:25:00 4.9 C 6.08 g/m*3 2.99 C 8.1 km/h
403 11-11-2019 09:30:00 5 C 6.12 g/m*3 3.11 C 8.1 km/h
404 11-11-2019 09:35:00 5.1 C 6.16 g/m*3 2.84 C 9.7 km/h
405 11-11-2019 09:40:00 5.1 C 6.09 g/m*3 3.71 C 6.4 km/h
406 11-11-2019 09:45:00 5.1 C 6.16 g/m*3 5.1 C 4.8 km/h
407 11-11-2019 09:50:00 5.2 C 6.2 g/m*3 5.2 C 3.2 km/h
408 11-11-2019 09:55:00 5.3 C 6.24 g/m*3 3.94 C 6.4 km/h
409 11-11-2019 10:00:00 5.3 C 6.17 g/m*3 3.94 C 6.4 km/h
410 11-11-2019 10:05:00 5.2 C 6.13 g/m*3 2.07 C 14.5 km/h
411 11-11-2019 10:10:00 5.2 C 6.13 g/m*3 3.82 C 6.4 km/h
412 11-11-2019 10:15:00 5.2 C 6.2 g/m*3 5.2 C 3.2 km/h
413 11-11-2019 10:20:00 5.2 C 6.13 g/m*3 5.2 C 3.2 km/h
414 11-11-2019 10:25:00 5.3 C 6.24 g/m*3 3.94 C 6.4 km/h
415 11-11-2019 10:30:00 5.3 C 6.17 g/m*3 5.3 C 4.8 km/h
416 11-11-2019 10:35:00 5.3 C 6.17 g/m*3 3.46 C 8.1 km/h
417 11-11-2019 10:40:00 5.3 C 6.17 g/m*3 3.94 C 6.4 km/h
418 11-11-2019 10:45:00 5.3 C 6.17 g/m*3 3.46 C 8.1 km/h
419 11-11-2019 10:50:00 5.2 C 6.13 g/m*3 2.63 C 11.3 km/h
420 11-11-2019 10:55:00 5.1 C 6.02 g/m*3 3.23 C 8.1 km/h
421 11-11-2019 11:00:00 5.2 C 6.13 g/m*3 2.96 C 9.7 km/h
422 11-11-2019 11:05:00 5.3 C 6.24 g/m*3 5.3 C 4.8 km/h
423 11-11-2019 11:10:00 5.3 C 6.1 g/m*3 3.08 C 9.7 km/h
424 11-11-2019 11:15:00 5.3 C 6.17 g/m*3 3.08 C 9.7 km/h
425 11-11-2019 11:20:00 5.4 C 6.21 g/m*3 5.4 C 3.2 km/h
Sensor: Nr:Datum:Temp:Abs-Feuchte:Windchill:Wind:
Aussen-T/F 426 11-11-2019 11:25:00 5.6 C 6.29 g/m*3 5.6 C 3.2 km/h
427 11-11-2019 11:30:00 5.7 C 6.26 g/m*3 4.4 C 6.4 km/h
428 11-11-2019 11:35:00 5.7 C 6.26 g/m*3 3.93 C 8.1 km/h
429 11-11-2019 11:40:00 5.7 C 6.19 g/m*3 4.4 C 6.4 km/h
430 11-11-2019 11:45:00 5.7 C 6.19 g/m*3 5.7 C 4.8 km/h
431 11-11-2019 11:50:00 5.8 C 6.3 g/m*3 4.05 C 8.1 km/h
432 11-11-2019 11:55:00 5.8 C 6.23 g/m*3 3.07 C 12.9 km/h
433 11-11-2019 12:00:00 5.8 C 6.23 g/m*3 4.52 C 6.4 km/h
434 11-11-2019 12:05:00 5.9 C 6.27 g/m*3 4.17 C 8.1 km/h
435 11-11-2019 12:10:00 6 C 6.39 g/m*3 6 C 3.2 km/h
436 11-11-2019 12:15:00 6.1 C 6.28 g/m*3 4.86 C 6.4 km/h
437 11-11-2019 12:20:00 6 C 6.24 g/m*3 3.92 C 9.7 km/h
438 11-11-2019 12:25:00 6 C 6.31 g/m*3 4.28 C 8.1 km/h
439 11-11-2019 12:30:00 6.1 C 6.36 g/m*3 3.72 C 11.3 km/h
440 11-11-2019 12:35:00 6.1 C 6.36 g/m*3 4.4 C 8.1 km/h
441 11-11-2019 12:40:00 6 C 6.31 g/m*3 4.75 C 6.4 km/h
442 11-11-2019 12:45:00 6 C 6.31 g/m*3 6 C 4.8 km/h
443 11-11-2019 12:50:00 6.1 C 6.36 g/m*3 4.04 C 9.7 km/h
444 11-11-2019 12:55:00 6.2 C 6.4 g/m*3 6.2 C 3.2 km/h
445 11-11-2019 13:00:00 6.3 C 6.44 g/m*3 5.1 C 6.4 km/h
446 11-11-2019 13:05:00 6.4 C 6.48 g/m*3 6.4 C 3.2 km/h
447 11-11-2019 13:10:00 6.4 C 6.41 g/m*3 6.4 C 4.8 km/h
448 11-11-2019 13:15:00 6.5 C 6.45 g/m*3 6.5 C 3.2 km/h
449 11-11-2019 13:20:00 6.5 C 6.45 g/m*3 6.5 C 4.8 km/h
450 11-11-2019 13:25:00 6.5 C 6.45 g/m*3 5.33 C 6.4 km/h
Sensor: Nr:Datum:Temp:Abs-Feuchte:Windchill:Wind:
Aussen-T/F 451 11-11-2019 13:30:00 6.5 C 6.37 g/m*3 5.33 C 6.4 km/h
452 11-11-2019 13:35:00 6.4 C 6.41 g/m*3 6.4 C 4.8 km/h
453 11-11-2019 13:40:00 6.4 C 6.41 g/m*3 6.4 C 1.6 km/h
454 11-11-2019 13:45:00 6.4 C 6.33 g/m*3 4.75 C 8.1 km/h
455 11-11-2019 13:50:00 6.4 C 6.41 g/m*3 4.39 C 9.7 km/h
456 11-11-2019 13:55:00 6.4 C 6.41 g/m*3 4.75 C 8.1 km/h
457 11-11-2019 14:00:00 6.3 C 6.37 g/m*3 5.1 C 6.4 km/h
458 11-11-2019 14:05:00 6.3 C 6.37 g/m*3 4.27 C 9.7 km/h
459 11-11-2019 14:10:00 6.3 C 6.37 g/m*3 5.1 C 6.4 km/h
460 11-11-2019 14:15:00 6.3 C 6.37 g/m*3 3.68 C 12.9 km/h
461 11-11-2019 14:20:00 6.2 C 6.32 g/m*3 4.15 C 9.7 km/h
462 11-11-2019 14:25:00 6.2 C 6.32 g/m*3 6.2 C 3.2 km/h
463 11-11-2019 14:30:00 6.2 C 6.4 g/m*3 6.2 C 1.6 km/h
464 11-11-2019 14:35:00 6.2 C 6.32 g/m*3 4.52 C 8.1 km/h
465 11-11-2019 14:40:00 6 C 6.31 g/m*3 4.75 C 6.4 km/h
466 11-11-2019 14:45:00 5.9 C 6.27 g/m*3 4.63 C 6.4 km/h
467 11-11-2019 14:50:00 5.8 C 6.23 g/m*3 5.8 C 4.8 km/h
468 11-11-2019 14:55:00 5.7 C 6.26 g/m*3 4.4 C 6.4 km/h
469 11-11-2019 15:00:00 5.7 C 6.26 g/m*3 5.7 C 3.2 km/h
470 11-11-2019 15:05:00 5.7 C 6.26 g/m*3 5.7 C 4.8 km/h
471 11-11-2019 15:10:00 5.7 C 6.26 g/m*3 5.7 C 4.8 km/h
472 11-11-2019 15:15:00 5.7 C 6.33 g/m*3 5.7 C 4.8 km/h
473 11-11-2019 15:20:00 5.7 C 6.33 g/m*3 5.7 C 4.8 km/h
474 11-11-2019 15:25:00 5.7 C 6.33 g/m*3 5.7 C 1.6 km/h
475 11-11-2019 15:30:00 5.7 C 6.33 g/m*3 3.93 C 8.1 km/h
Sensor: Nr:Datum:Temp:Abs-Feuchte:Windchill:Wind:
Aussen-T/F 476 11-11-2019 15:35:00 5.6 C 6.29 g/m*3 3.81 C 8.1 km/h
477 11-11-2019 15:40:00 5.6 C 6.29 g/m*3 5.6 C 4.8 km/h
478 11-11-2019 15:45:00 5.5 C 6.25 g/m*3 5.5 C 4.8 km/h
479 11-11-2019 15:50:00 5.4 C 6.21 g/m*3 4.06 C 6.4 km/h
480 11-11-2019 15:55:00 5.4 C 6.21 g/m*3 5.4 C 4.8 km/h
481 11-11-2019 16:00:00 5.3 C 6.17 g/m*3 5.3 C 4.8 km/h
482 11-11-2019 16:05:00 5.4 C 6.28 g/m*3 5.4 C 4.8 km/h
483 11-11-2019 16:10:00 5.3 C 6.24 g/m*3 3.08 C 9.7 km/h
484 11-11-2019 16:15:00 5.3 C 6.24 g/m*3 2.75 C 11.3 km/h
485 11-11-2019 16:20:00 5.3 C 6.24 g/m*3 3.94 C 6.4 km/h
486 11-11-2019 16:25:00 5.3 C 6.24 g/m*3 2.75 C 11.3 km/h
487 11-11-2019 16:30:00 5.2 C 6.2 g/m*3 5.2 C 4.8 km/h
488 11-11-2019 16:35:00 5.2 C 6.2 g/m*3 5.2 C 3.2 km/h
489 11-11-2019 16:40:00 5.2 C 6.2 g/m*3 5.2 C 1.6 km/h
490 11-11-2019 16:45:00 5.2 C 6.2 g/m*3 5.2 C 4.8 km/h
491 11-11-2019 16:50:00 5.2 C 6.2 g/m*3 5.2 C 1.6 km/h
492 11-11-2019 16:55:00 5.2 C 6.2 g/m*3 5.2 C 4.8 km/h
493 11-11-2019 17:00:00 5.1 C 6.16 g/m*3 3.71 C 6.4 km/h
494 11-11-2019 17:05:00 5.1 C 6.16 g/m*3 3.23 C 8.1 km/h
495 11-11-2019 17:10:00 5.1 C 6.16 g/m*3 2.84 C 9.7 km/h
496 11-11-2019 17:15:00 5.1 C 6.16 g/m*3 5.1 C 4.8 km/h
497 11-11-2019 17:20:00 5.1 C 6.16 g/m*3 3.23 C 8.1 km/h
498 11-11-2019 17:25:00 5.1 C 6.16 g/m*3 3.23 C 8.1 km/h
499 11-11-2019 17:30:00 5.1 C 6.16 g/m*3 2.84 C 9.7 km/h
500 11-11-2019 17:35:00 5.1 C 6.16 g/m*3 3.23 C 8.1 km/h
Sensor: Nr:Datum:Temp:Abs-Feuchte:Windchill:Wind:
Aussen-T/F 501 11-11-2019 17:40:00 5.1 C 6.16 g/m*3 5.1 C 1.6 km/h
502 11-11-2019 17:45:00 5.1 C 6.16 g/m*3 3.71 C 6.4 km/h
503 11-11-2019 17:50:00 5.1 C 6.16 g/m*3 3.71 C 6.4 km/h
504 11-11-2019 17:55:00 5 C 6.12 g/m*3 5 C 3.2 km/h
505 11-11-2019 18:00:00 4.9 C 6.08 g/m*3 2.99 C 8.1 km/h
506 11-11-2019 18:05:00 4.9 C 6.08 g/m*3 4.9 C 1.6 km/h
507 11-11-2019 18:10:00 4.8 C 6.04 g/m*3 4.8 C 4.8 km/h
508 11-11-2019 18:15:00 4.8 C 6.04 g/m*3 4.8 C 4.8 km/h
509 11-11-2019 18:20:00 4.8 C 6.1 g/m*3 4.8 C 4.8 km/h
510 11-11-2019 18:25:00 4.8 C 6.1 g/m*3 4.8 C 1.6 km/h
511 11-11-2019 18:30:00 4.8 C 6.1 g/m*3 4.8 C 4.8 km/h
512 11-11-2019 18:35:00 4.9 C 6.14 g/m*3 4.9 C 4.8 km/h
513 11-11-2019 18:40:00 4.9 C 6.14 g/m*3 4.9 C 3.2 km/h
514 11-11-2019 18:45:00 4.9 C 6.14 g/m*3 4.9 C 4.8 km/h
515 11-11-2019 18:50:00 4.9 C 6.14 g/m*3 4.9 C 3.2 km/h
516 11-11-2019 18:55:00 4.9 C 6.14 g/m*3 4.9 C 3.2 km/h
517 11-11-2019 19:00:00 4.9 C 6.21 g/m*3 4.9 C 1.6 km/h
518 11-11-2019 19:05:00 4.9 C 6.21 g/m*3 4.9 C 4.8 km/h
519 11-11-2019 19:10:00 4.9 C 6.21 g/m*3 4.9 C 0 km/h
520 11-11-2019 19:15:00 4.9 C 6.21 g/m*3 4.9 C 0 km/h
521 11-11-2019 19:20:00 4.8 C 6.17 g/m*3 4.8 C 3.2 km/h
522 11-11-2019 19:25:00 4.8 C 6.24 g/m*3 4.8 C 0 km/h
523 11-11-2019 19:30:00 4.8 C 6.24 g/m*3 4.8 C 0 km/h
524 11-11-2019 19:35:00 4.8 C 6.24 g/m*3 4.8 C 0 km/h
525 11-11-2019 19:40:00 4.8 C 6.24 g/m*3 4.8 C 0 km/h
Sensor: Nr:Datum:Temp:Abs-Feuchte:Windchill:Wind:
Aussen-T/F 526 11-11-2019 19:45:00 4.8 C 6.24 g/m*3 4.8 C 0 km/h
527 11-11-2019 19:50:00 4.8 C 6.24 g/m*3 4.8 C 0 km/h
528 11-11-2019 19:55:00 4.8 C 6.24 g/m*3 4.8 C 0 km/h
529 11-11-2019 20:00:00 4.8 C 6.24 g/m*3 4.8 C 0 km/h
530 11-11-2019 20:05:00 4.8 C 6.3 g/m*3 4.8 C 0 km/h
531 11-11-2019 20:10:00 4.8 C 6.3 g/m*3 4.8 C 0 km/h
532 11-11-2019 20:15:00 4.8 C 6.3 g/m*3 4.8 C 0 km/h
533 11-11-2019 20:20:00 4.8 C 6.3 g/m*3 4.8 C 0 km/h
534 11-11-2019 20:25:00 4.8 C 6.3 g/m*3 4.8 C 0 km/h
535 11-11-2019 20:30:00 4.8 C 6.3 g/m*3 4.8 C 0 km/h
536 11-11-2019 20:35:00 4.8 C 6.3 g/m*3 4.8 C 0 km/h
537 11-11-2019 20:40:00 4.8 C 6.3 g/m*3 4.8 C 1.6 km/h
538 11-11-2019 20:45:00 4.8 C 6.3 g/m*3 4.8 C 0 km/h
539 11-11-2019 20:50:00 4.8 C 6.3 g/m*3 4.8 C 0 km/h
540 11-11-2019 20:55:00 4.8 C 6.37 g/m*3 4.8 C 0 km/h
541 11-11-2019 21:00:00 4.8 C 6.37 g/m*3 4.8 C 0 km/h
542 11-11-2019 21:05:00 4.8 C 6.37 g/m*3 4.8 C 0 km/h
543 11-11-2019 21:10:00 4.8 C 6.37 g/m*3 4.8 C 1.6 km/h
544 11-11-2019 21:15:00 4.9 C 6.41 g/m*3 4.9 C 0 km/h
545 11-11-2019 21:20:00 4.9 C 6.41 g/m*3 4.9 C 0 km/h
546 11-11-2019 21:25:00 4.9 C 6.41 g/m*3 4.9 C 0 km/h
547 11-11-2019 21:30:00 5 C 6.46 g/m*3 5 C 0 km/h
548 11-11-2019 21:35:00 5 C 6.46 g/m*3 5 C 0 km/h
549 11-11-2019 21:40:00 5.1 C 6.5 g/m*3 5.1 C 0 km/h
550 11-11-2019 21:45:00 5.1 C 6.5 g/m*3 5.1 C 4.8 km/h
Sensor: Nr:Datum:Temp:Abs-Feuchte:Windchill:Wind:
Aussen-T/F 551 11-11-2019 21:50:00 5.2 C 6.54 g/m*3 5.2 C 1.6 km/h
552 11-11-2019 21:55:00 5.2 C 6.54 g/m*3 5.2 C 4.8 km/h
553 11-11-2019 22:00:00 5.2 C 6.54 g/m*3 5.2 C 3.2 km/h
554 11-11-2019 22:05:00 5.2 C 6.54 g/m*3 5.2 C 0 km/h
555 11-11-2019 22:10:00 5.2 C 6.54 g/m*3 5.2 C 3.2 km/h
556 11-11-2019 22:15:00 5.2 C 6.54 g/m*3 5.2 C 3.2 km/h
557 11-11-2019 22:20:00 5.1 C 6.5 g/m*3 5.1 C 3.2 km/h
558 11-11-2019 22:25:00 5.1 C 6.5 g/m*3 5.1 C 0 km/h
559 11-11-2019 22:30:00 5.1 C 6.5 g/m*3 5.1 C 0 km/h
560 11-11-2019 22:35:00 5.1 C 6.5 g/m*3 5.1 C 0 km/h
561 11-11-2019 22:40:00 5.1 C 6.5 g/m*3 5.1 C 0 km/h
562 11-11-2019 22:45:00 5.1 C 6.5 g/m*3 5.1 C 0 km/h
563 11-11-2019 22:50:00 5.1 C 6.5 g/m*3 5.1 C 0 km/h
564 11-11-2019 22:55:00 5.1 C 6.5 g/m*3 5.1 C 0 km/h
565 11-11-2019 23:00:00 5.1 C 6.5 g/m*3 5.1 C 0 km/h
566 11-11-2019 23:05:00 5.1 C 6.57 g/m*3 5.1 C 0 km/h
567 11-11-2019 23:10:00 5.2 C 6.61 g/m*3 5.2 C 0 km/h
568 11-11-2019 23:15:00 5.2 C 6.61 g/m*3 5.2 C 0 km/h
569 11-11-2019 23:20:00 5.2 C 6.61 g/m*3 5.2 C 0 km/h
570 11-11-2019 23:25:00 5.2 C 6.61 g/m*3 5.2 C 0 km/h
571 11-11-2019 23:30:00 5.2 C 6.61 g/m*3 5.2 C 0 km/h
572 11-11-2019 23:35:00 5.2 C 6.61 g/m*3 5.2 C 0 km/h
573 11-11-2019 23:40:00 5.2 C 6.61 g/m*3 5.2 C 0 km/h
574 11-11-2019 23:45:00 5.2 C 6.61 g/m*3 5.2 C 0 km/h
575 11-11-2019 23:50:00 5.2 C 6.61 g/m*3 5.2 C 1.6 km/h
Sensor: Nr:Datum:Temp:Abs-Feuchte:Windchill:Wind:
Aussen-T/F 576 11-11-2019 23:55:00 5.2 C 6.61 g/m*3 5.2 C 0 km/h

Legende:
   Min
   Max


Maximal/Minimal-Werte vom 14.04.2020 - 16.05.2020

Sensor Min Max Avg
Temp
(Aussen-T/F)
-0.1 °C
15-04-2020  06:55:00
26.2 °C
17-04-2020  18:05:00
11.98 °C

Die Daten stammen von einer Davis Vantage Pro 2 Wetter-Station und werden unter Linux mit der Software wview2wettercgi und aufbereitet. Alle Angaben erfolgen ohne Gewähr für ihre Vollständigkeit oder Richtigkeit.
Kontakt: Rainer Krienke krienke@uni-koblenz.de . Meine Webseiten an der Uni Koblenz oder privat.
Version: $Revision: 0.78 $